createdAt,value
2023-03-26T00:01:29.697Z,100891.91
2023-03-26T00:03:58.028Z,100891.34
2023-03-26T00:06:31.301Z,100900.56
2023-03-26T00:08:58.497Z,100897.22
2023-03-26T00:11:27.447Z,100900.06
2023-03-26T00:13:57.750Z,100902.09
2023-03-26T00:16:28.845Z,100899.84
2023-03-26T00:18:57.520Z,100907.28
2023-03-26T00:21:28.200Z,100903.41
2023-03-26T00:23:58.480Z,100901.31
2023-03-26T00:26:27.108Z,100903.91
2023-03-26T00:28:54.521Z,100909.63
2023-03-26T00:31:22.292Z,100918.56
2023-03-26T00:33:54.289Z,100910.72
2023-03-26T00:36:25.376Z,100913.88
2023-03-26T00:38:53.924Z,100918.84
2023-03-26T00:41:25.878Z,100920.56
2023-03-26T00:43:58.815Z,100913.44
2023-03-26T00:46:28.497Z,100906.53
2023-03-26T00:48:58.864Z,100911.91
2023-03-26T00:51:27.713Z,100914.53
2023-03-26T00:53:55.778Z,100911.41
2023-03-26T00:56:23.223Z,100907.34
2023-03-26T00:58:50.420Z,100903.34
2023-03-26T01:01:27.292Z,100901.72
2023-03-26T01:04:08.295Z,100894.31
2023-03-26T01:06:42.327Z,100897.31
2023-03-26T01:09:21.511Z,100897.31
2023-03-26T01:11:49.865Z,100894.44
2023-03-26T01:14:25.309Z,100896.81
2023-03-26T01:16:58.426Z,100891.72
2023-03-26T01:19:38.206Z,100880.16
2023-03-26T01:22:09.606Z,100873.34
2023-03-26T01:24:37.870Z,100873.34
2023-03-26T01:27:09.560Z,100862.09
2023-03-26T01:29:42.880Z,100875.22
2023-03-26T01:32:17.684Z,100862.13
2023-03-26T01:35:19.075Z,100861.66
2023-03-26T01:38:18.495Z,100851.97
2023-03-26T01:40:54.762Z,100861.84
2023-03-26T01:43:44.391Z,100858.03
2023-03-26T01:46:14.691Z,100859.03
2023-03-26T01:48:46.823Z,100855.84
2023-03-26T01:51:25.120Z,100857.97
2023-03-26T01:53:53.410Z,100858.97
2023-03-26T01:56:35.915Z,100860.34
2023-03-26T01:59:21.339Z,100853.44
2023-03-26T02:02:11.735Z,100845.75
2023-03-26T02:05:00.336Z,100860.06
2023-03-26T02:07:52.963Z,100858.50
2023-03-26T02:10:29.702Z,100849.38
2023-03-26T02:12:59.014Z,100839.63
2023-03-26T02:15:26.245Z,100834.78
2023-03-26T02:17:54.077Z,100838.91
2023-03-26T02:20:21.654Z,100829.22
2023-03-26T02:22:48.957Z,100821.84
2023-03-26T02:25:21.245Z,100819.28
2023-03-26T02:27:52.431Z,100817.28
2023-03-26T02:30:26.049Z,100824.56
2023-03-26T02:32:59.246Z,100821.13
2023-03-26T02:35:31.398Z,100817.13
2023-03-26T02:38:01.160Z,100814.31
2023-03-26T02:40:28.558Z,100808.47
2023-03-26T02:42:56.397Z,100806.47
2023-03-26T02:45:24.333Z,100800.25
2023-03-26T02:48:09.971Z,100809.75
2023-03-26T02:51:03.060Z,100807.97
2023-03-26T02:53:41.995Z,100807.16
2023-03-26T02:56:35.315Z,100804.75
2023-03-26T02:59:25.307Z,100800.16
2023-03-26T03:02:13.403Z,100810.88
2023-03-26T03:04:41.058Z,100813.94
2023-03-26T03:07:08.222Z,100815.72
2023-03-26T03:09:35.518Z,100822.84
2023-03-26T03:12:25.283Z,100831.09
2023-03-26T03:14:52.553Z,100824.03
2023-03-26T03:17:20.891Z,100827.31
2023-03-26T03:19:48.203Z,100816.97
2023-03-26T03:22:16.244Z,100824.03
2023-03-26T03:24:43.793Z,100820.13
2023-03-26T03:27:10.960Z,100825.44
2023-03-26T03:29:42.824Z,100819.31
2023-03-26T03:32:28.478Z,100829.28
2023-03-26T03:35:00.402Z,100829.38
2023-03-26T03:37:27.696Z,100824.28
2023-03-26T03:39:56.220Z,100824.28
2023-03-26T03:42:27.405Z,100822.78
2023-03-26T03:44:57.224Z,100823.69
2023-03-26T03:47:43.054Z,100809.09
2023-03-26T03:50:11.794Z,100810.56
2023-03-26T03:52:47.313Z,100808.66
2023-03-26T03:55:17.292Z,100814.91
2023-03-26T03:57:52.456Z,100821.13
2023-03-26T04:00:22.587Z,100815.00
2023-03-26T04:03:06.489Z,100807.97
2023-03-26T04:05:34.593Z,100807.28
2023-03-26T04:08:01.903Z,100803.78
2023-03-26T04:10:28.933Z,100812.56
2023-03-26T04:13:05.286Z,100812.66
2023-03-26T04:15:48.535Z,100814.44
2023-03-26T04:18:15.820Z,100820.69
2023-03-26T04:20:49.324Z,100817.44
2023-03-26T04:23:23.213Z,100815.53
2023-03-26T04:26:03.397Z,100819.09
2023-03-26T04:28:54.721Z,100821.34
2023-03-26T04:31:30.769Z,100824.16
2023-03-26T04:34:06.220Z,100829.50
2023-03-26T04:36:40.646Z,100828.66
2023-03-26T04:39:11.697Z,100821.69
2023-03-26T04:42:14.313Z,100809.94
2023-03-26T04:44:55.854Z,100817.25
2023-03-26T04:47:23.534Z,100819.16
2023-03-26T04:49:50.926Z,100814.94
2023-03-26T04:52:18.761Z,100812.38
2023-03-26T04:54:58.350Z,100815.00
2023-03-26T04:57:32.624Z,100808.03
2023-03-26T05:00:19.561Z,100802.88
2023-03-26T05:02:57.817Z,100800.25
2023-03-26T05:05:26.960Z,100802.84
2023-03-26T05:07:55.267Z,100797.69
2023-03-26T05:10:23.832Z,100787.13
2023-03-26T05:12:56.391Z,100788.25
2023-03-26T05:15:27.211Z,100786.94
2023-03-26T05:17:55.522Z,100791.47
2023-03-26T05:20:34.311Z,100796.88
2023-03-26T05:23:03.288Z,100786.88
2023-03-26T05:25:34.802Z,100781.78
2023-03-26T05:28:03.772Z,100783.69
2023-03-26T05:30:38.906Z,100775.38
2023-03-26T05:33:06.626Z,100780.69
2023-03-26T05:35:45.275Z,100785.97
2023-03-26T05:38:12.837Z,100773.50
2023-03-26T05:40:39.970Z,100779.38
2023-03-26T05:43:08.252Z,100775.84
2023-03-26T05:45:35.313Z,100779.13
2023-03-26T05:48:15.646Z,100781.28
2023-03-26T05:50:42.983Z,100785.63
2023-03-26T05:53:10.258Z,100785.44
2023-03-26T05:55:59.351Z,100783.56
2023-03-26T05:58:45.002Z,100779.91
2023-03-26T06:01:44.615Z,100788.13
2023-03-26T06:04:16.147Z,100788.09
2023-03-26T06:06:57.729Z,100787.75
2023-03-26T06:09:25.828Z,100789.38
2023-03-26T06:11:52.987Z,100785.00
2023-03-26T06:14:20.767Z,100786.75
2023-03-26T06:17:15.392Z,100794.75
2023-03-26T06:20:00.982Z,100788.44
2023-03-26T06:22:40.458Z,100780.09
2023-03-26T06:25:19.289Z,100776.09
2023-03-26T06:28:16.262Z,100773.50
2023-03-26T06:30:49.676Z,100771.38
2023-03-26T06:33:30.450Z,100760.88
2023-03-26T06:35:59.646Z,100758.66
2023-03-26T06:38:27.031Z,100755.72
2023-03-26T06:40:54.793Z,100757.25
2023-03-26T06:43:25.394Z,100747.75
2023-03-26T06:46:21.352Z,100750.03
2023-03-26T06:49:07.099Z,100745.31
2023-03-26T06:51:53.452Z,100755.44
2023-03-26T06:54:39.150Z,100756.97
2023-03-26T06:57:48.697Z,100764.34
2023-03-26T07:00:42.315Z,100759.19
2023-03-26T07:03:38.978Z,100757.59
2023-03-26T07:06:24.886Z,100746.25
2023-03-26T07:09:12.026Z,100749.94
2023-03-26T07:11:59.167Z,100747.88
2023-03-26T07:14:44.935Z,100756.19
2023-03-26T07:17:35.173Z,100760.25
2023-03-26T07:20:13.211Z,100746.63
2023-03-26T07:22:42.071Z,100748.53
2023-03-26T07:25:28.059Z,100751.00
2023-03-26T07:28:32.834Z,100739.94
2023-03-26T07:31:46.081Z,100754.16
2023-03-26T07:35:03.298Z,100749.47
2023-03-26T07:37:57.103Z,100747.66
2023-03-26T07:40:54.956Z,100730.38
2023-03-26T07:43:52.012Z,100744.22
2023-03-26T07:46:34.858Z,100745.47
2023-03-26T07:49:21.840Z,100736.09
2023-03-26T07:52:25.932Z,100729.34
2023-03-26T07:55:14.981Z,100725.09
2023-03-26T07:58:18.977Z,100723.31
2023-03-26T08:01:25.139Z,100721.94
2023-03-26T08:04:23.574Z,100720.13
2023-03-26T08:07:45.124Z,100707.47
2023-03-26T08:10:23.216Z,100709.97
2023-03-26T08:13:28.071Z,100709.47
2023-03-26T08:16:01.360Z,100703.16
2023-03-26T08:18:50.196Z,100686.91
2023-03-26T08:21:34.863Z,100681.53
2023-03-26T08:24:34.231Z,100674.00
2023-03-26T08:27:13.456Z,100658.84
2023-03-26T08:29:45.149Z,100668.69
2023-03-26T08:32:19.038Z,100668.59
2023-03-26T08:34:46.779Z,100658.44
2023-03-26T08:37:14.644Z,100650.09
2023-03-26T08:39:42.363Z,100647.56
2023-03-26T08:42:21.305Z,100652.16
2023-03-26T08:45:30.015Z,100650.69
2023-03-26T08:48:06.637Z,100644.75
2023-03-26T08:50:46.304Z,100648.13
2023-03-26T08:53:13.637Z,100638.50
2023-03-26T08:56:01.592Z,100632.09
2023-03-26T08:58:50.638Z,100639.97
2023-03-26T09:01:20.526Z,100638.56
2023-03-26T09:04:24.648Z,100629.56
2023-03-26T09:07:06.837Z,100625.44
2023-03-26T09:10:02.867Z,100626.19
2023-03-26T09:12:51.351Z,100626.41
2023-03-26T09:15:42.366Z,100620.31
2023-03-26T09:18:18.526Z,100623.44
2023-03-26T09:20:54.767Z,100618.25
2023-03-26T09:23:36.406Z,100623.94
2023-03-26T09:26:26.120Z,100619.72
2023-03-26T09:29:14.941Z,100606.97
2023-03-26T09:32:17.025Z,100613.00
2023-03-26T09:34:50.086Z,100615.13
2023-03-26T09:37:56.891Z,100611.31
2023-03-26T09:41:05.484Z,100608.22
2023-03-26T09:43:36.746Z,100583.59
2023-03-26T09:46:35.975Z,100577.75
2023-03-26T09:49:26.924Z,100567.53
2023-03-26T09:52:13.593Z,100571.09
2023-03-26T09:54:49.990Z,100563.06
2023-03-26T09:57:45.217Z,100555.38
2023-03-26T10:00:28.371Z,100557.16
2023-03-26T10:03:26.410Z,100558.81
2023-03-26T10:06:11.923Z,100550.63
2023-03-26T10:08:50.404Z,100549.59
2023-03-26T10:11:38.110Z,100545.88
2023-03-26T10:14:29.430Z,100543.88
2023-03-26T10:17:21.715Z,100541.22
2023-03-26T10:19:52.320Z,100525.56
2023-03-26T10:22:27.335Z,100517.06
2023-03-26T10:25:12.831Z,100512.69
2023-03-26T10:27:46.146Z,100509.91
2023-03-26T10:30:15.968Z,100504.31
2023-03-26T10:33:02.904Z,100505.78
2023-03-26T10:35:39.794Z,100503.56
2023-03-26T10:38:18.317Z,100496.66
2023-03-26T10:40:58.477Z,100497.81
2023-03-26T10:44:07.486Z,100493.28
2023-03-26T10:46:52.581Z,100485.56
2023-03-26T10:49:25.809Z,100478.16
2023-03-26T10:51:55.865Z,100473.09
2023-03-26T10:54:47.405Z,100476.50
2023-03-26T10:57:23.312Z,100462.22
2023-03-26T10:59:53.997Z,100458.84
2023-03-26T11:02:29.597Z,100445.00
2023-03-26T11:05:07.064Z,100433.41
2023-03-26T11:07:44.028Z,100429.22
2023-03-26T11:10:16.880Z,100424.13
2023-03-26T11:12:55.735Z,100417.00
2023-03-26T11:15:31.337Z,100410.44
2023-03-26T11:17:58.419Z,100411.56
2023-03-26T11:20:44.176Z,100414.03
2023-03-26T11:23:36.127Z,100401.28
2023-03-26T11:26:06.306Z,100395.25
2023-03-26T11:29:03.077Z,100397.09
2023-03-26T11:31:32.001Z,100390.56
2023-03-26T11:34:06.269Z,100379.16
2023-03-26T11:36:39.589Z,100387.91
2023-03-26T11:39:13.897Z,100385.00
2023-03-26T11:41:41.287Z,100395.81
2023-03-26T11:44:28.235Z,100392.59
2023-03-26T11:47:01.192Z,100384.84
2023-03-26T11:49:29.497Z,100386.47
2023-03-26T11:51:56.711Z,100377.75
2023-03-26T11:54:23.810Z,100377.22
2023-03-26T11:57:05.805Z,100367.78
2023-03-26T11:59:57.132Z,100362.38
2023-03-26T12:02:38.597Z,100355.25
2023-03-26T12:05:29.440Z,100346.88
2023-03-26T12:08:00.426Z,100333.97
2023-03-26T12:10:35.058Z,100333.97
2023-03-26T12:13:26.506Z,100341.56
2023-03-26T12:15:59.387Z,100346.66
2023-03-26T12:18:28.258Z,100345.19
2023-03-26T12:21:10.601Z,100348.53
2023-03-26T12:23:45.486Z,100352.38
2023-03-26T12:26:18.766Z,100343.47
2023-03-26T12:28:47.369Z,100323.03
2023-03-26T12:31:19.681Z,100312.13
2023-03-26T12:34:16.707Z,100302.03
2023-03-26T12:36:59.999Z,100295.28
2023-03-26T12:40:08.087Z,100300.34
2023-03-26T12:44:51.383Z,100297.31
2023-03-26T12:45:14.398Z,100297.13
2023-03-26T12:47:57.825Z,100290.69
2023-03-26T12:50:57.609Z,100279.03
2023-03-26T12:53:37.601Z,100278.03
2023-03-26T12:56:27.205Z,100269.25
2023-03-26T12:59:18.604Z,100264.63
2023-03-26T13:02:13.996Z,100265.22
2023-03-26T13:05:07.071Z,100255.28
2023-03-26T13:07:48.737Z,100251.69
2023-03-26T13:10:37.129Z,100239.13
2023-03-26T13:13:10.004Z,100240.94
2023-03-26T13:15:43.302Z,100228.84
2023-03-26T13:18:48.950Z,100215.69
2023-03-26T13:21:37.927Z,100220.88
2023-03-26T13:24:22.958Z,100199.81
2023-03-26T13:27:04.257Z,100193.75
2023-03-26T13:29:49.832Z,100186.69
2023-03-26T13:32:22.867Z,100182.97
2023-03-26T13:35:17.818Z,100177.22
2023-03-26T13:38:00.979Z,100176.38
2023-03-26T13:41:14.507Z,100179.72
2023-03-26T13:43:58.000Z,100181.09
2023-03-26T13:46:48.858Z,100168.47
2023-03-26T13:49:29.282Z,100167.50
2023-03-26T13:52:01.754Z,100168.81
2023-03-26T13:54:35.827Z,100160.72
2023-03-26T13:57:31.832Z,100147.94
2023-03-26T14:02:57.416Z,100130.38
2023-03-26T14:05:33.363Z,100145.53
2023-03-26T14:08:04.364Z,100128.13
2023-03-26T14:10:42.995Z,100132.78
2023-03-26T14:13:15.626Z,100126.38
2023-03-26T14:16:21.066Z,100129.63
2023-03-26T14:18:56.176Z,100123.44
2023-03-26T14:22:02.063Z,100122.44
2023-03-26T14:25:04.541Z,100101.00
2023-03-26T14:27:40.525Z,100104.50
2023-03-26T14:30:28.190Z,100094.66
2023-03-26T14:33:11.308Z,100102.06
2023-03-26T14:36:07.095Z,100097.81
2023-03-26T14:38:52.176Z,100096.16
2023-03-26T14:41:28.926Z,100079.56
2023-03-26T14:44:24.000Z,100061.47
2023-03-26T14:47:01.673Z,100031.09
2023-03-26T14:50:03.405Z,100020.59
2023-03-26T14:52:50.893Z,100014.25
2023-03-26T14:55:30.114Z,100016.69
2023-03-26T14:58:08.075Z,100016.38
2023-03-26T15:01:04.056Z,100013.81
2023-03-26T15:03:48.851Z,100008.94
2023-03-26T15:06:34.142Z,100002.41
2023-03-26T15:09:26.351Z,99994.41
2023-03-26T15:12:21.167Z,99989.09
2023-03-26T15:15:13.182Z,99986.81
2023-03-26T15:17:49.445Z,99979.06
2023-03-26T15:21:00.290Z,99972.16
2023-03-26T15:23:58.566Z,99945.94
2023-03-26T15:26:44.150Z,99948.63
2023-03-26T15:29:40.247Z,99940.72
2023-03-26T15:32:30.068Z,99936.97
2023-03-26T15:35:34.680Z,99916.97
2023-03-26T15:38:10.608Z,99911.88
2023-03-26T15:40:44.705Z,99895.34
2023-03-26T15:43:11.828Z,99889.84
2023-03-26T15:45:49.733Z,99897.06
2023-03-26T15:48:25.829Z,99885.25
2023-03-26T15:50:54.441Z,99887.03
2023-03-26T15:53:48.935Z,99889.16
2023-03-26T15:56:40.293Z,99889.50
2023-03-26T15:59:38.199Z,99877.34
2023-03-26T16:02:38.964Z,99879.16
2023-03-26T16:05:44.744Z,99880.34
2023-03-26T16:08:38.761Z,99895.97
2023-03-26T16:11:12.466Z,99893.78
2023-03-26T16:13:39.906Z,99888.78
2023-03-26T16:16:19.882Z,99876.03
2023-03-26T16:18:58.469Z,99900.81
2023-03-26T16:21:32.820Z,99901.25
2023-03-26T16:24:03.063Z,99899.91
2023-03-26T16:26:48.791Z,99898.19
2023-03-26T16:29:26.794Z,99902.50
2023-03-26T16:32:15.795Z,99898.91
2023-03-26T16:34:57.951Z,99896.69
2023-03-26T16:37:50.571Z,99905.88
2023-03-26T16:40:17.820Z,99920.84
2023-03-26T16:43:11.725Z,99941.97
2023-03-26T16:45:49.149Z,99949.66
2023-03-26T16:48:51.341Z,99936.31
2023-03-26T16:51:31.902Z,99939.88
2023-03-26T16:54:23.251Z,99962.66
2023-03-26T16:57:16.173Z,99975.44
2023-03-26T17:00:06.187Z,99980.72
2023-03-26T17:03:16.003Z,99988.78
2023-03-26T17:05:58.041Z,99990.22
2023-03-26T17:08:43.396Z,99976.56
2023-03-26T17:11:36.717Z,99984.75
2023-03-26T17:14:24.858Z,99978.94
2023-03-26T17:17:22.530Z,99970.78
2023-03-26T17:20:19.163Z,99976.75
2023-03-26T17:22:51.697Z,99986.81
2023-03-26T17:26:02.935Z,99995.38
2023-03-26T17:28:50.522Z,99999.28
2023-03-26T17:31:40.139Z,99992.34
2023-03-26T17:34:33.172Z,100001.88
2023-03-26T17:37:03.161Z,100012.31
2023-03-26T17:39:50.420Z,100017.88
2023-03-26T17:42:27.413Z,100016.13
2023-03-26T17:44:59.220Z,100029.81
2023-03-26T17:47:26.383Z,100047.31
2023-03-26T17:50:20.206Z,100100.94
2023-03-26T17:53:01.235Z,100137.22
2023-03-26T17:55:31.635Z,100139.56
2023-03-26T17:58:03.451Z,100127.25
2023-03-26T18:00:41.301Z,100128.59
2023-03-26T18:03:08.398Z,100120.53
2023-03-26T18:05:39.402Z,100121.91
2023-03-26T18:08:41.391Z,100115.81
2023-03-26T18:11:36.970Z,100127.97
2023-03-26T18:14:29.762Z,100144.41
2023-03-26T18:16:59.866Z,100144.34
2023-03-26T18:19:27.537Z,100134.28
2023-03-26T18:21:58.943Z,100138.00
2023-03-26T18:24:37.444Z,100099.91
2023-03-26T18:27:08.481Z,100073.38
2023-03-26T18:29:37.831Z,100067.63
2023-03-26T18:32:11.307Z,100076.63
2023-03-26T18:34:46.625Z,100024.03
2023-03-26T18:37:19.567Z,100004.28
2023-03-26T18:39:59.061Z,100027.00
2023-03-26T18:42:28.350Z,100011.44
2023-03-26T18:44:59.930Z,99991.97
2023-03-26T18:47:31.046Z,99986.38
2023-03-26T18:49:59.065Z,99989.97
2023-03-26T18:52:29.829Z,99976.31
2023-03-26T18:54:59.049Z,99971.91
2023-03-26T18:57:28.401Z,99990.34
2023-03-26T19:00:08.820Z,100001.03
2023-03-26T19:02:36.629Z,100007.78
2023-03-26T19:05:04.172Z,100010.00
2023-03-26T19:07:31.615Z,100009.28
2023-03-26T19:10:00.348Z,100012.53
2023-03-26T19:12:33.123Z,100026.22
2023-03-26T19:15:17.254Z,100027.06
2023-03-26T19:17:47.763Z,100020.59
2023-03-26T19:20:27.712Z,100004.00
2023-03-26T19:22:56.861Z,100006.66
2023-03-26T19:25:31.355Z,99995.75
2023-03-26T19:27:59.214Z,99973.84
2023-03-26T19:30:32.782Z,99974.22
2023-03-26T19:33:13.265Z,99956.75
2023-03-26T19:35:42.396Z,99942.41
2023-03-26T19:38:29.994Z,99946.44
2023-03-26T19:40:58.100Z,99927.09
2023-03-26T19:43:26.234Z,99920.88
2023-03-26T19:46:00.029Z,99922.06
2023-03-26T19:48:46.665Z,99916.13
2023-03-26T19:51:37.122Z,99914.13
2023-03-26T19:54:14.614Z,99922.91
2023-03-26T19:56:43.421Z,99910.47
2023-03-26T19:59:10.664Z,99909.22
2023-03-26T20:01:37.855Z,99897.28
2023-03-26T20:04:06.609Z,99901.41
2023-03-26T20:06:43.237Z,99913.38
2023-03-26T20:09:14.275Z,99914.59
2023-03-26T20:11:42.088Z,99907.22
2023-03-26T20:14:15.169Z,99903.63
2023-03-26T20:16:44.931Z,99908.50
2023-03-26T20:19:14.718Z,99903.31
2023-03-26T20:21:43.005Z,99907.88
2023-03-26T20:24:18.102Z,99909.94
2023-03-26T20:26:46.493Z,99914.19
2023-03-26T20:29:14.527Z,99929.25
2023-03-26T20:31:42.584Z,99936.53
2023-03-26T20:34:16.636Z,99936.75
2023-03-26T20:36:45.518Z,99937.81
2023-03-26T20:39:13.278Z,99936.63
2023-03-26T20:41:45.007Z,99941.63
2023-03-26T20:44:15.613Z,99944.72
2023-03-26T20:46:43.938Z,99933.31
2023-03-26T20:49:12.235Z,99937.13
2023-03-26T20:51:41.736Z,99940.50
2023-03-26T20:54:17.764Z,99936.06
2023-03-26T20:56:45.656Z,99940.19
2023-03-26T20:59:18.831Z,99939.13
2023-03-26T21:01:47.378Z,99943.66
2023-03-26T21:04:16.086Z,99936.03
2023-03-26T21:06:43.620Z,99925.25
2023-03-26T21:09:15.043Z,99920.56
2023-03-26T21:12:02.098Z,99916.47
2023-03-26T21:14:40.227Z,99915.81
2023-03-26T21:17:14.621Z,99925.19
2023-03-26T21:19:42.654Z,99926.75
2023-03-26T21:22:22.574Z,99915.88
2023-03-26T21:24:58.064Z,99913.31
2023-03-26T21:27:37.800Z,99916.81
2023-03-26T21:30:16.229Z,99921.34
2023-03-26T21:32:45.370Z,99911.72
2023-03-26T21:35:14.936Z,99911.41
2023-03-26T21:37:44.355Z,99906.66
2023-03-26T21:40:14.571Z,99902.22
2023-03-26T21:42:43.246Z,99902.63
2023-03-26T21:45:11.262Z,99904.63
2023-03-26T21:47:38.802Z,99894.41
2023-03-26T21:50:07.753Z,99907.38
2023-03-26T21:52:35.841Z,99905.44
2023-03-26T21:55:05.257Z,99906.78
2023-03-26T21:57:43.567Z,99912.88
2023-03-26T22:00:23.731Z,99914.91
2023-03-26T22:03:14.829Z,99907.72
2023-03-26T22:06:02.707Z,99915.34
2023-03-26T22:08:35.670Z,99922.72
2023-03-26T22:11:02.819Z,99917.22
2023-03-26T22:13:30.986Z,99914.09
2023-03-26T22:15:58.187Z,99910.81
2023-03-26T22:18:26.022Z,99907.63
2023-03-26T22:20:53.292Z,99914.13
2023-03-26T22:23:20.822Z,99921.56
2023-03-26T22:25:47.955Z,99924.22
2023-03-26T22:28:15.657Z,99920.25
2023-03-26T22:30:42.777Z,99905.13
2023-03-26T22:33:11.079Z,99919.78
2023-03-26T22:35:39.014Z,99913.09
2023-03-26T22:38:06.822Z,99908.56
2023-03-26T22:40:33.925Z,99919.13
2023-03-26T22:43:01.062Z,99925.69
2023-03-26T22:45:28.139Z,99927.28
2023-03-26T22:48:03.811Z,99917.78
2023-03-26T22:50:32.514Z,99913.19
2023-03-26T22:52:59.778Z,99911.41
2023-03-26T22:55:28.968Z,99900.50
2023-03-26T22:57:57.335Z,99901.94
2023-03-26T23:00:26.382Z,99911.13
2023-03-26T23:02:55.965Z,99915.53
2023-03-26T23:05:23.675Z,99901.06
2023-03-26T23:07:52.203Z,99899.47
2023-03-26T23:10:19.281Z,99907.28
2023-03-26T23:12:46.578Z,99909.72
2023-03-26T23:15:14.060Z,99903.53
2023-03-26T23:17:41.309Z,99911.88
2023-03-26T23:20:14.510Z,99910.66
2023-03-26T23:22:42.930Z,99904.47
2023-03-26T23:25:11.627Z,99909.53
2023-03-26T23:27:40.202Z,99911.88
2023-03-26T23:30:08.152Z,99912.34
2023-03-26T23:32:37.755Z,99906.16
2023-03-26T23:35:06.031Z,99922.22
2023-03-26T23:37:35.095Z,99920.63
2023-03-26T23:40:07.370Z,99912.53
2023-03-26T23:42:34.606Z,99914.88
2023-03-26T23:45:01.950Z,99910.84
2023-03-26T23:47:34.295Z,99904.00
2023-03-26T23:50:02.644Z,99916.28
2023-03-26T23:52:30.820Z,99906.78
2023-03-26T23:55:00.764Z,99913.19
2023-03-26T23:57:27.886Z,99907.16
2023-03-26T23:59:55.560Z,99901.81
